Terminal Aerodrome Forecast
Issued by NWS Sioux Falls, SD

Home | Current Version | Previous Version | Text Only | Print | Product List | Glossary Off
Versions: 1 2 3 4 5 6 7 8 9 10 11 12 13 14 15 16 17 18 19 20 21 22 23 24 25 26 27 28

000
FTUS43 KFSD 152220 AAB
TAFSUX
TAF AMD
KSUX 152220Z 1522/1618 35022G30KT 6SM -RA OVC008
     FM160000 33024G33KT 3SM -SN OVC010
     FM160500 33020G30KT P6SM OVC012
     FM161200 32014G21KT P6SM OVC015=

USA.gov is the U.S. government's official web portal to all federal, state and local government web resources and services.